x

9440910 - Toke Point, Wa (tokw1) Weather Station

3:54 - Mon 27th Apr 2015 All times are PDT. -7 hours from GMT.

  • Wind
    10mph, 13mph gusts
  • Air Temp 53°f
  • Sea Pressure 1024.3mb
  • 9440910 - Toke Point, Wa
  • 9440910 - Toke Point, Wa

More Historic Weather Station data

Upgrade to MSW Pro to gain access to the past 30 days of data for over 8000 Wavebouys and Weather Stations around the globe.

Join Pro

Comparision Forecast

View Surf forecast
   
lun. 04/27 3:54 10 13 mph 1024.3mb 53f
3:48 10 13 mph 1024.3mb 53f
3:42 11 14 mph 1024.3mb 53f
3:36 10 13 mph 1024.2mb 53f
3:30 9 11 mph 1024.2mb 53f
3:24 10 13 mph 1024.2mb 53f
3:18 11 14 mph 1024.2mb 53f
3:12 10 14 mph 1024.2mb 53f
3:06 11 14 mph 1024.2mb 53f
3:00 11 15 mph 1024.2mb 54f
2:54 13 16 mph 1024.2mb 53f
2:48 13 15 mph 1024.1mb 53f
2:42 13 16 mph 1024.2mb 53f
2:36 13 17 mph 1024.2mb 53f
2:30  -  mph 1024.2mb 53f
2:24  -  mph 1024.2mb 53f
2:18 13 15 mph 1024.2mb 53f
2:12 13 15 mph 1024.2mb 53f
2:06 13 15 mph 1024.2mb 53f
2:00 14 15 mph 1024.2mb 53f
1:54 13 14 mph 1024.3mb 53f
1:48 13 15 mph 1024.3mb 53f
1:42 14 16 mph 1024.3mb 53f
1:36 14 16 mph 1024.3mb 53f
1:30 15 17 mph 1024.3mb 53f
1:24 14 18 mph 1024.3mb 53f
1:06 14 16 mph 1024.4mb 52f
1:00 13 15 mph 1024.4mb 52f
12:54 14 16 mph 1024.3mb 52f
12:48 14 15 mph 1024.3mb 52f
12:42 11 14 mph 1024.3mb 52f
12:36 11 14 mph 1024.4mb 52f
12:30 13 14 mph 1024.4mb 52f
12:24 10 13 mph 1024.4mb 52f
12:18 11 13 mph 1024.4mb 52f
12:12 9 11 mph 1024.2mb 52f
12:06 8 10 mph 1024.3mb 52f
12:00 8 9 mph 1024.2mb 52f
dim. 04/26 11:48 7 9 mph 1024.1mb 52f
11:42 7 8 mph 1024.1mb 52f
11:18 8 9 mph 1024.1mb 52f
11:06 8 10 mph 1023.9mb 52f
10:54 7 8 mph 1024mb 52f
10:48 6 8 mph 1024mb 52f
10:42 5 6 mph 1024mb 52f
10:36 3 6 mph 1024.1mb 52f
10:30 3 5 mph 1024.1mb 52f
10:24 3 5 mph 1024.1mb 52f
10:18 5 7 mph 1024.1mb 52f
10:12 6 8 mph 1024.1mb 52f
10:06 6 8 mph 1024mb 52f
10:00 8 9 mph 1023.9mb 52f
9:54 7 9 mph 1023.9mb 52f
9:48 7 8 mph - -
9:42 7 9 mph 1024mb 51f
9:36 5 7 mph 1024mb 51f
9:30 5 6 mph 1024mb 51f
9:24 5 6 mph 1024mb 51f
9:18 5 6 mph 1023.9mb 51f
9:12 6 7 mph 1023.8mb 51f
9:06 6 7 mph 1023.7mb 51f
9:00 6 7 mph 1023.7mb 51f
8:54 6 8 mph 1023.7mb 51f
8:48 7
mph
1023.7mb 51f
8:42 7 8 mph 1023.7mb 51f
8:36 5 7 mph 1023.7mb 51f
8:30 6 8 mph 1023.6mb 51f
8:24 7 8 mph 1023.5mb 51f
8:18 7 8 mph 1023.5mb 51f
8:12 7 9 mph 1023.4mb 51f
8:06 8 9 mph 1023.4mb 51f
8:00 8 9 mph 1023.3mb 51f
7:54 8 9 mph 1023.4mb 51f
7:48 7 8 mph 1023.5mb 51f
7:42 7 8 mph 1023.5mb 51f
7:36 7 9 mph 1023.5mb 51f
7:30 7
mph
1023.5mb 51f
7:24 6 9 mph 1023.6mb 51f
7:18 6 7 mph - -
7:12 6 8 mph 1023.4mb 51f
7:06 7 9 mph 1023.4mb 51f
7:00 8 9 mph 1023.4mb 51f
6:54 3 6 mph 1023.6mb 51f
6:48 3 6 mph 1023.5mb 51f
6:42 6 7 mph 1023.4mb 51f
6:36 8 14 mph 1023.4mb 52f
6:30 8 11 mph 1023.3mb 52f
6:24 7 9 mph 1023.3mb 51f
6:18 7 9 mph - -
6:12 7 8 mph 1023.5mb 51f
6:06 5 8 mph 1023.4mb 51f
6:00 6 8 mph 1023.5mb 51f
5:54 6 9 mph 1023.5mb 52f
5:36 6 8 mph 1023.5mb 52f
5:30 8 9 mph 1023.5mb 52f
5:24 8 10 mph 1023.5mb 52f
5:18 9 10 mph 1023.5mb 52f
5:12 10 11 mph 1023.6mb 52f
5:06 9 10 mph 1023.6mb 51f
5:00 9 11 mph 1023.6mb 51f
4:54 8 11 mph 1023.6mb 51f
4:48 10 11 mph 1023.5mb 52f
4:42 9 14 mph 1023.5mb 52f
4:36 13 15 mph 1023.4mb 52f
4:30 14 18 mph 1023.4mb 52f
4:24 14 18 mph 1023.4mb 52f
4:18 16 18 mph 1023.4mb 53f
4:12 14 21 mph 1023.4mb 53f
4:06 15 18 mph 1023.4mb 53f
4:00 13 15 mph 1023.4mb 53f
3:54 13 16 mph 1023.3mb 53f
3:48 15 18 mph 1023.3mb 54f
3:42 15 17 mph 1023.2mb 54f
3:36 14 20 mph 1023.3mb 54f
3:30 16 20 mph 1023.4mb 54f
3:24 15 20 mph 1023.4mb 54f
3:18 18 22 mph 1023.4mb 54f
3:12 13 18 mph 1023.4mb 54f
3:06 13 21 mph 1023.3mb 54f
3:00 16 22 mph 1023.2mb 55f
2:54 17 25 mph 1023.2mb 55f
2:48 16 20 mph 1023.2mb 55f
2:42 14 18 mph 1023.2mb 54f
2:30 18 23 mph 1023.1mb 54f
2:24 15 21 mph 1023.1mb 54f
2:18 16 24 mph 1023.1mb 54f
2:12 16 22 mph 1023.1mb 54f
2:06 14 16 mph 1023.2mb 54f
2:00 10 16 mph 1023.3mb 54f
1:54 11 15 mph 1023.3mb 54f
1:48 9 10 mph 1023.1mb 53f
1:42 8 11 mph 1023.3mb 53f
1:36 8 10 mph 1023.3mb 53f
1:30 6 9 mph 1023.4mb 53f
1:24 8 10 mph 1023.4mb 53f
1:18 7 9 mph 1023.3mb 52f
1:12 9 11 mph 1023.3mb 52f
1:06 9 11 mph 1023.3mb 52f
1:00 7 10 mph 1023.4mb 52f
12:54 9 11 mph 1023.4mb 52f
12:48 10 13 mph 1023.3mb 52f
12:42 9 13 mph 1023.4mb 52f
12:36 9 13 mph 1023.4mb 52f
12:30 8 11 mph 1023.4mb 52f
12:24 10 15 mph 1023.2mb 52f
12:18 13 15 mph 1023.2mb 52f
12:12 9 14 mph 1023.2mb 52f
12:06 11 15 mph 1023.2mb 52f
12:00 11 14 mph 1023.1mb 52f
11:54 11 14 mph 1023.1mb 51f
11:48 11 14 mph 1023mb 51f
11:42 9 10 mph 1023.1mb 51f
11:36 6 9 mph 1023mb 51f
11:30 7 9 mph 1023.1mb 51f
11:24 8 11 mph 1023mb 50f
11:18 8 9 mph 1023mb -
11:12 8 9 mph 1023.1mb 50f
11:06 8 9 mph 1023mb 49f
11:00 8 9 mph 1023mb 48f
10:54 9
mph
1023mb 48f
10:48 8 10 mph 1022.8mb 48f
10:42 8 11 mph 1022.8mb 48f
10:36 9 10 mph 1022.7mb 48f
10:30 9 10 mph 1022.8mb 48f
10:24 10
mph
1022.7mb 47f
10:18 8 10 mph 1022.6mb 47f
10:12 7 9 mph 1022.7mb 48f
10:06 9 10 mph 1022.6mb 47f
10:00 8 9 mph 1022.6mb 47f
9:54 6 7 mph 1022.6mb 47f
9:48 6
mph
1022.6mb 47f
9:42 5 6 mph 1022.5mb 47f
9:36 5 6 mph 1022.3mb 47f
9:30 6 8 mph 1022.2mb 47f
9:24 7 9 mph 1022mb 47f
9:18 7 9 mph 1022mb 46f
9:12 8 10 mph 1021.9mb 46f
9:06 8 9 mph 1021.8mb 46f
9:00 8 10 mph 1021.8mb 46f
8:54 8 10 mph 1021.7mb 46f
8:48 8 9 mph 1021.6mb -
8:42 8 10 mph 1021.7mb 46f
8:36 10 11 mph 1021.7mb 46f
8:30 11 13 mph 1021.6mb 46f
8:24 11 13 mph 1021.7mb 45f
8:18 11
mph
- -
8:12 11 13 mph 1021.6mb 45f
8:06 8 9 mph 1021.6mb 46f
8:00 8 10 mph 1021.6mb 46f
7:54 8 10 mph 1021.4mb 46f
7:48 9 11 mph 1021.3mb 45f
7:42 10 11 mph 1021.3mb 46f
7:36 8 9 mph 1021.2mb 45f
7:30 8 9 mph 1021.1mb 45f
7:24 8 9 mph 1021.1mb 45f
7:18 8 9 mph 1021mb 45f
7:12 8 9 mph 1021mb 45f
7:06 8 9 mph 1020.9mb 45f
7:00 9 10 mph 1020.9mb 45f
6:54 9 11 mph 1020.8mb 45f
6:48 9 13 mph 1020.8mb 45f
6:42 11
mph
1020.8mb 44f
6:36 9 13 mph 1020.9mb 45f
6:30 10 11 mph 1020.9mb 45f
6:24 10 13 mph 1020.9mb 45f
6:18 10 13 mph 1020.8mb 45f
6:12 10 13 mph 1020.7mb 44f
6:06 11 13 mph 1020.7mb 44f
6:00 11 14 mph 1020.6mb 44f
5:54 11 14 mph 1020.5mb 45f
5:48 11 14 mph 1020.4mb 44f
5:42 11 13 mph 1020.5mb 45f
5:36 11 13 mph 1020.4mb 45f
5:30 10 13 mph 1020.3mb 45f
5:24 10 13 mph 1020.3mb 45f
5:18 10 13 mph 1020.3mb 45f
5:12 10 13 mph 1020.2mb 44f
5:06 11 14 mph 1020.2mb 45f
5:00 13 14 mph 1020.1mb 44f
4:54 11 14 mph 1020.1mb 45f
4:48 11 13 mph 1020mb 45f
4:42 11 13 mph 1019.9mb 44f
4:36 11 13 mph 1019.8mb 44f
4:30 11 14 mph 1019.8mb 44f
4:24 11 13 mph 1019.7mb 44f
4:18 10 13 mph 1019.8mb 45f
4:12 10 13 mph 1019.6mb 45f
4:06 9 11 mph 1019.8mb 44f
4:00 10 11 mph 1019.7mb 44f
3:54 11 14 mph 1019.7mb 44f
3:48 10 13 mph 1019.8mb 44f
3:42 9 11 mph 1019.9mb 45f
3:36 10 13 mph 1019.8mb 44f
3:30 10 13 mph 1019.9mb 44f
3:24 10 11 mph 1019.8mb 44f
3:18 10 11 mph 1019.9mb 44f
3:12 9 11 mph 1019.9mb 45f
3:06 10 11 mph 1020mb 45f
3:00 10
mph
1020.1mb 45f
2:54 8 10 mph 1020mb 45f
2:48 8 9 mph 1020mb 45f
2:42 8 10 mph 1020.1mb 45f
2:36 8 10 mph 1019.9mb 45f
2:30 9 10 mph 1019.9mb 44f
2:24 9 11 mph 1019.9mb 44f
2:18 10 11 mph - -
2:12 11
mph
1019.6mb 44f
2:06 9 11 mph 1019.6mb 44f
2:00 10 13 mph 1019.6mb 44f
1:54 9 10 mph 1019.6mb 45f
1:48 9 10 mph 1019.7mb 45f
1:42 8 9 mph 1019.7mb 45f
1:36 8 9 mph 1019.7mb 45f
1:30 8 9 mph 1019.6mb 45f
1:24 8 9 mph 1019.6mb 45f
1:18 8 10 mph 1019.7mb 45f
1:12 8 9 mph 1019.7mb 45f
1:06 8 10 mph 1019.7mb 45f
1:00 8 9 mph 1019.6mb 45f
12:54 8 9 mph 1019.6mb 45f
12:48 7 9 mph 1019.6mb 45f
12:42 7 8 mph 1019.6mb 45f
12:36 7 8 mph 1019.7mb 45f
12:30 6 7 mph 1019.7mb 46f
12:24 6 7 mph 1019.6mb 46f
12:18 6 7 mph 1019.7mb 46f
12:12 7 8 mph 1019.7mb 46f
12:06 8 9 mph 1019.7mb 46f
12:00 7 9 mph 1019.6mb 46f
sam. 04/25 11:42 7 8 mph - -
11:30 3 5 mph - 46f
11:18 5 6 mph 1019.4mb 46f
10:48 5 6 mph 1019.3mb 46f
10:42 5
mph
1019.2mb 46f
10:36 3 5 mph 1019mb 46f
10:30 3 5 mph 1018.9mb 46f
10:24 5
mph
1018.9mb 46f
10:06 3 5 mph 1018.9mb 47f
10:00 3 5 mph 1018.9mb 47f
9:54 2
mph
1018.9mb 48f
9:48 1 2 mph 1019mb 48f
9:42 2 3 mph 1018.9mb 48f
9:36 3 6 mph 1019mb 48f
9:30 6
mph
1019mb 48f
9:24 3 5 mph 1018.9mb 48f
9:18 3 5 mph 1018.9mb 49f
9:12 3 5 mph 1018.9mb 49f
8:54 3 5 mph 1018.6mb 49f
8:48 5
mph
1018.7mb 49f
8:42 3 5 mph 1018.6mb 49f
8:36 6
mph
1018.7mb 50f
8:30 6
mph
1018.7mb 50f
8:24 6
mph
1018.6mb 50f
8:18 6 7 mph 1018.6mb 50f
8:12 6 7 mph 1018.6mb 50f
8:00 7 8 mph 1018.6mb 51f
7:54 6 8 mph 1018.5mb 51f
7:48 7 8 mph 1018.5mb 51f
7:42 8 9 mph 1018.5mb 51f
7:36 8 10 mph 1018.5mb 51f
7:30 8 10 mph 1018.4mb 51f
7:24 9 11 mph 1018.4mb 52f
7:18 8 10 mph 1018.4mb 52f
7:12 9 11 mph 1018.4mb 52f
7:06 9 14 mph 1018.3mb 52f
7:00 9 11 mph 1018.2mb 52f
6:48 10 14 mph 1018.2mb 52f
6:42 9 11 mph 1018.2mb 52f
6:36 9 13 mph 1018.2mb 52f
6:30 9 13 mph 1018.2mb 52f
6:24 7 10 mph 1018.1mb 52f
6:18 9 13 mph 1018mb 52f
6:12 9 14 mph 1017.9mb 52f
6:06 10 14 mph 1017.8mb 52f
6:00 9 14 mph 1017.8mb 53f
5:54 10 13 mph 1017.8mb 53f
5:48 8 11 mph 1017.8mb 52f
5:42 9 13 mph 1017.8mb 52f
5:36 11 14 mph 1017.8mb 52f
5:30 10 15 mph 1017.7mb 52f
5:24 11 16 mph 1017.7mb 52f
5:18 11 16 mph 1017.7mb 52f
5:12 11 14 mph 1017.7mb 52f
5:06 11 15 mph 1017.7mb 52f
5:00 10 15 mph 1017.7mb 52f
4:54 11 16 mph 1017.7mb 52f
4:48 10 17 mph 1017.7mb 52f
4:42 10 16 mph 1017.7mb 52f
4:36 10 14 mph 1017.7mb 53f
4:30 10 16 mph 1017.7mb 52f
4:24 13 18 mph 1017.7mb 52f
4:18 9 15 mph 1017.6mb 52f
4:12 14 17 mph 1017.6mb 52f
4:06 11 16 mph 1017.6mb 52f
4:00 10 15 mph 1017.6mb 52f
3:54 13 17 mph 1017.6mb 52f
3:48 10 16 mph 1017.5mb 52f
3:42 11 16 mph 1017.5mb 52f
3:36 14 17 mph 1017.5mb 52f
3:30 13 16 mph 1017.5mb 52f
3:24 14 16 mph 1017.5mb 52f
3:18 13 16 mph 1017.5mb 52f
3:12 15 18 mph 1017.4mb 51f
3:06 11 15 mph 1017.4mb 52f
3:00 13 17 mph 1017.4mb 52f
2:54 13 16 mph 1017.4mb 51f
2:48 11 16 mph 1017.4mb 51f
2:42 7 16 mph 1017.4mb 52f
2:36 11 16 mph 1017.3mb 52f
2:30 10 16 mph 1017.3mb 51f
2:24 10 17 mph 1017.3mb 52f
2:18 9 16 mph 1017.3mb 52f
2:12 8 14 mph 1017.2mb 52f
2:06 10 14 mph 1017.2mb 52f
2:00 5 15 mph 1017.1mb 52f
1:54 7 14 mph 1017.1mb 52f
1:48 2 14 mph 1017.1mb 52f
1:42 8 14 mph 1017.2mb 52f
1:36 8 14 mph 1017.2mb 51f
1:30 5 15 mph 1017.1mb 52f
1:24 7 14 mph 1017.1mb 51f
1:18 5 14 mph 1017.1mb -
1:12 5 13 mph 1017.2mb 52f
1:06 10 14 mph 1017.2mb 51f
1:00 8 15 mph 1017.2mb 51f
12:54 5 15 mph 1017.2mb 52f
12:48 6 16 mph 1017.2mb 52f
12:42 13 16 mph 1017.2mb 51f
12:36 8 14 mph 1017.2mb 51f
12:30 9 14 mph 1017.1mb 51f
12:24 5 9 mph 1017.1mb 52f
12:18 2 10 mph 1017mb 52f
12:12 5 11 mph 1017mb 51f
12:06 8 13 mph 1017mb 49f
12:00 9 11 mph 1016.9mb 50f
11:54 2 8 mph 1016.9mb 51f
11:48 1 9 mph 1016.8mb 51f
11:42 2 13 mph 1016.8mb 51f
11:36 3 10 mph 1016.7mb 52f
11:30 3 9 mph 1016.7mb 51f
11:24 2 8 mph 1016.7mb 52f
11:18 2 6 mph 1016.7mb 51f
11:12 5 9 mph 1016.7mb 50f
11:06 2 6 mph 1016.7mb 51f
11:00 5 6 mph 1016.7mb 50f
10:54 5 6 mph 1016.7mb 49f
10:36 1 3 mph 1016.6mb 48f
10:30 2 3 mph 1016.5mb 47f
10:24 2 3 mph 1016.4mb 47f
10:18 2 5 mph 1016.3mb 48f
10:12 3 5 mph 1016.2mb 47f
10:06 2 3 mph 1016.2mb 47f
10:00 2 5 mph 1016.1mb 47f
9:54 3
mph
1016mb 46f
9:48 3 5 mph 1016mb 46f
9:42 5 6 mph 1016mb 46f
9:30 3 5 mph 1015.9mb 46f
9:24 6 7 mph 1015.9mb 45f
9:18 6 8 mph 1016mb 45f
9:12 6 8 mph 1015.9mb 45f
9:06 6 8 mph 1015.9mb 44f
9:00 7 9 mph 1015.9mb 43f
8:54 7 9 mph 1015.8mb 43f
8:48 7 8 mph 1015.7mb 43f
8:42 8
mph
1015.7mb 42f
8:36 7 8 mph 1015.7mb 42f
8:30 7 8 mph 1015.7mb 41f
8:24 7 9 mph 1015.6mb 41f
8:18 8 9 mph 1015.6mb 41f
8:06 8 9 mph 1015.5mb 41f
8:00 8 9 mph 1015.5mb 41f
7:54 8 9 mph 1015.5mb 40f
7:48 8 9 mph 1015.4mb 40f
7:42 8 10 mph 1015.4mb 40f
7:24 7 8 mph 1015.3mb 40f
7:06 7 8 mph 1015mb 41f
7:00 7
mph
1014.9mb 41f
6:54 6 8 mph 1014.9mb 41f
6:48 7
mph
1014.8mb 41f
6:42 6 8 mph 1014.7mb 41f
6:36 7 8 mph 1014.7mb 41f
6:30 5 7 mph 1014.6mb 41f
6:24 6 7 mph 1014.5mb 41f
6:06 5 6 mph 1014.4mb 41f
6:00 5 6 mph 1014.3mb 42f
5:54 6
mph
1014.3mb 42f
5:48 5 6 mph 1014.2mb 42f
5:42 5 6 mph 1014.1mb 42f
5:36 6
mph
1014.1mb 42f
5:30 6
mph
1014.2mb 42f
5:24 5 6 mph 1014.1mb 42f
5:06 5 6 mph 1014mb 43f
5:00 5 6 mph 1014mb 43f
4:54 3 6 mph 1014mb 43f
4:48 5 6 mph 1014mb 43f
4:42 3 6 mph 1014mb 43f
4:36 5 6 mph 1013.9mb 44f
4:30 5 7 mph 1013.9mb 44f
4:24 6
mph
1013.9mb 44f
4:18 5 7 mph - -
4:12 5 6 mph 1013.9mb 44f
4:06 5 6 mph 1013.9mb 44f
4:00 5 6 mph 1013.9mb 44f
3:54 5 7 mph 1013.8mb 45f
3:48 5 6 mph 1013.8mb -
3:42 5
mph
1013.7mb 45f
3:36 5 6 mph 1013.7mb 44f
3:30 5 6 mph 1013.7mb 45f
3:24 5 6 mph 1013.7mb 45f
3:18 6
mph
1013.7mb 44f
3:12 5 6 mph 1013.6mb 45f
3:06 5 7 mph 1013.6mb 44f
3:00 5 6 mph 1013.7mb 44f
2:54 3 7 mph 1013.6mb 45f
2:48 6 7 mph 1013.6mb 45f
2:42 6
mph
1013.6mb 45f
2:36 5 7 mph 1013.6mb 45f
2:30 6
mph
1013.5mb 45f
2:24 3 5 mph 1013.5mb 44f
2:18 3 6 mph 1013.4mb 44f
2:12 6 7 mph 1013.4mb 45f
2:06 6 7 mph 1013.4mb 45f
2:00 5 7 mph 1013.4mb 45f
1:54 6 8 mph 1013.3mb 45f
1:48 6 8 mph 1013.3mb 45f
1:42 6 9 mph 1013.3mb 45f
1:36 6 9 mph 1013.3mb 45f
1:30 6 7 mph 1013.4mb 45f
1:24 5 6 mph 1013.4mb 45f
1:18 6 7 mph 1013.4mb 45f
1:12 6 7 mph 1013.4mb 46f
1:06 3 6 mph 1013.4mb 45f
1:00 5 7 mph 1013.3mb 45f
12:54 6 7 mph 1013.2mb 45f
12:48 5 7 mph 1013.1mb 46f
12:42 5 6 mph 1013.1mb 46f
12:36 1 13 mph 1013.1mb 46f
12:30 8 11 mph 1013.2mb 45f
12:24 10
mph
1013mb 45f
12:18 10 11 mph 1012.9mb 45f
12:12 5 6 mph 1012.8mb 46f
12:06 3 5 mph 1012.8mb 46f
12:00 2 5 mph 1012.8mb 46f
ven. 04/24 11:48 2
mph
1012.8mb 46f
11:42 1 2 mph 1012.8mb 46f
11:30 3
mph
1012.9mb 46f
11:18 2 3 mph 1012.8mb 46f
11:00 2 5 mph 1012.8mb 47f
10:42 2 3 mph 1012.8mb 48f
10:36 2 3 mph 1012.7mb 48f
10:30  -  2 mph 1012.7mb 48f
10:24  -  2 mph 1012.7mb 48f
10:18 1 3 mph 1012.6mb 48f
10:12 2 5 mph 1012.6mb 48f
10:06 2 3 mph 1012.6mb 48f
10:00 1 3 mph 1012.6mb 48f
9:48 1 3 mph 1012.6mb 48f
9:42  -  3 mph 1012.6mb 48f
9:36 3 6 mph 1012.5mb 48f
9:30 3 5 mph 1012.5mb 48f
9:24 5 6 mph 1012.5mb 47f
9:18 5 6 mph 1012.5mb 48f
9:12 2 5 mph 1012.4mb 48f
9:00 2 5 mph 1012.3mb 49f
8:54 2 5 mph 1012.3mb 48f
8:48 2 3 mph - -
8:42 3
mph
1012.1mb 48f
8:36 3
mph
1012.1mb 48f
8:30 3
mph
1012.1mb 48f
8:24 2 3 mph 1012mb 48f
8:18 3
mph
1012mb 48f
8:12 2 3 mph 1012mb 48f
8:06 2 3 mph 1012mb 48f
8:00 3
mph
1012mb 48f
7:54 3 5 mph 1012mb 48f
7:48 3 6 mph 1012mb 48f
7:42 6 7 mph 1012mb 48f
7:36 6 7 mph 1012mb 49f
7:30 7 9 mph 1012mb 48f
7:24 8 10 mph 1012mb 48f
7:18 8 10 mph 1012mb 49f
7:12 10 14 mph 1011.9mb 49f
7:06 9 14 mph 1011.9mb 49f
7:00 11 15 mph 1011.9mb 49f
6:54 13 15 mph 1011.9mb 50f
6:48 6 9 mph 1011.9mb 50f
6:42 8 9 mph 1011.8mb 50f
6:36 8 9 mph 1011.8mb 50f
6:30 6 9 mph 1011.8mb 50f
6:24 5 7 mph 1011.7mb 50f
6:18 6 8 mph 1011.7mb 50f
6:12 6 7 mph 1011.7mb 50f
6:06 5 7 mph 1011.7mb 50f
6:00 5 10 mph 1011.7mb 50f
5:54 3 10 mph 1011.7mb 51f
5:48 6 10 mph 1011.7mb 51f
5:42 7 11 mph 1011.6mb 50f
5:36 7 9 mph 1011.7mb 50f
5:30 7 10 mph 1011.7mb 50f
5:24 8 13 mph 1011.7mb 51f
5:18 10 14 mph 1011.7mb 50f
5:12 10 14 mph 1011.8mb 50f
5:06 13 16 mph 1011.8mb 51f
5:00 5 14 mph 1011.7mb 51f
4:54 3 7 mph 1011.7mb 52f
4:48 1 6 mph 1011.7mb 52f
4:42 1 6 mph 1011.6mb 52f
4:36 2 7 mph 1011.6mb 53f
4:30 3 14 mph 1011.6mb 53f
4:24 8 16 mph 1011.6mb 52f
4:18 5 9 mph 1011.5mb 52f
4:12 3 11 mph 1011.5mb 52f
4:06 2 9 mph 1011.5mb 51f
4:00 2 7 mph 1011.5mb 53f
3:54 3 9 mph 1011.5mb 54f
3:48 3 13 mph 1011.4mb 53f
3:42 3 9 mph 1011.4mb 53f
3:36 5 10 mph 1011.4mb 53f
3:30 3 8 mph 1011.4mb 53f
3:24 3 7 mph 1011.4mb 53f
3:18 3 8 mph 1011.4mb 53f
3:12 2 11 mph 1011.4mb 52f
3:06 3 9 mph 1011.4mb 53f
3:00 3 10 mph 1011.4mb 52f
2:54 2 6 mph 1011.4mb 53f
2:48 2 7 mph 1011.4mb 52f
2:42 2 6 mph 1011.3mb 52f
2:36 5 11 mph 1011.3mb 51f
2:30 2 7 mph 1011.3mb 52f
2:24 2 9 mph 1011.2mb 52f
2:18 3 13 mph 1011.2mb 51f
2:12 6 10 mph 1011.2mb 51f
2:06 7 13 mph 1011.1mb 51f
2:00 7 16 mph 1011mb 50f
1:54 6 13 mph 1010.9mb 51f
1:48 2 7 mph 1010.9mb 51f
1:42 5 17 mph 1010.8mb 51f
1:36 5 11 mph 1010.7mb 52f
1:30 3 16 mph 1010.7mb 52f
1:24 6 14 mph 1010.6mb 52f
1:18 6 11 mph 1010.6mb 53f
1:12 2 6 mph 1010.6mb 53f
1:06 3 9 mph 1010.6mb 54f
1:00 2 11 mph 1010.6mb 54f
12:54 5 9 mph 1010.6mb 53f
12:48 3 9 mph 1010.7mb 53f
12:42 5 14 mph 1010.7mb 53f
12:36 3 9 mph 1010.8mb 53f
12:30 3 9 mph 1010.8mb 53f
12:24 2 13 mph 1010.8mb 53f
12:18 5 8 mph 1010.8mb 53f
12:12 5 20 mph 1010.9mb 52f
12:06 7 21 mph 1011mb 52f
12:00 9 17 mph 1011mb 51f
11:54 5 14 mph 1010.9mb 53f
11:48 2 8 mph 1010.9mb 53f
11:42 2 8 mph 1010.8mb 53f
11:36 3 8 mph 1010.8mb 52f
11:30 3 10 mph 1010.7mb 52f
11:24 3 10 mph 1010.6mb 52f
11:18 6 14 mph 1010.6mb -
11:12 2 9 mph 1010.6mb 53f
11:06 3 10 mph 1010.5mb 52f
11:00 9 14 mph 1010.5mb 50f
10:54 3 7 mph 1010.5mb 52f
10:48 2 7 mph 1010.4mb 52f
10:42 1 7 mph 1010.4mb 52f
10:36 5 14 mph 1010.4mb 51f
10:30 9 11 mph 1010.4mb 50f
10:24 5 9 mph 1010.4mb 50f
10:18 2 11 mph 1010.3mb 49f
10:12 1 7 mph 1010.4mb 51f
10:06 5 10 mph 1010.3mb 50f
10:00 5 10 mph 1010.3mb 49f
9:54 6 10 mph 1010.2mb 50f
9:48 3 9 mph 1010.2mb 51f
9:42 5 11 mph 1010.2mb 50f
9:36 10 21 mph 1010.1mb 48f
9:30 14 22 mph 1010mb 48f
9:24 15 21 mph 1010mb 48f
9:18 5 10 mph 1009.9mb 49f
9:12 9 23 mph 1009.9mb 48f
9:06 5 11 mph 1009.8mb 49f
9:00 8 14 mph 1009.7mb 49f
8:54 7 11 mph 1009.7mb 49f
8:48 2 11 mph 1009.6mb 47f
8:42 10 21 mph 1009.7mb 48f
8:36 14 17 mph 1009.6mb 48f
8:30 14 20 mph 1009.6mb 49f
8:24 3 14 mph 1009.4mb 51f
8:18 7 13 mph 1009.4mb 50f
8:12 9 14 mph 1009.4mb 50f
8:06 10 15 mph 1009.4mb 50f
8:00 10 14 mph 1009.4mb 50f
7:54 10 15 mph 1009.4mb 49f
7:48 10 15 mph 1009.3mb -
7:42 10 15 mph 1009.2mb 49f
7:36 9 15 mph 1009.2mb 49f
7:30 8 14 mph 1009.1mb 49f
7:24 3 11 mph 1009.2mb 49f
7:18 3 9 mph 1009.2mb 49f
7:12 1 5 mph 1009.1mb 48f
7:06 1 9 mph 1009.1mb 48f
7:00 5 9 mph 1009mb 47f
6:54 6 9 mph 1009mb 47f
6:48 8 13 mph 1009mb 46f
6:42 10 21 mph 1009mb 47f
6:36 20 25 mph 1009mb 47f
6:30 2 8 mph 1009mb 49f
6:24 2 13 mph 1008.8mb 49f
6:18 3 11 mph 1008.8mb 49f
6:12 1 6 mph 1008.8mb 49f
6:06 2 6 mph 1008.8mb 49f
6:00 2 6 mph 1008.7mb 49f
5:54 2 9 mph 1008.7mb 49f
5:48 2 7 mph 1008.7mb 49f
5:42 5 10 mph 1008.7mb 49f
5:36 6 13 mph 1008.7mb 49f
5:30 6 11 mph 1008.7mb 49f
5:24 6 16 mph 1008.7mb 49f
5:18 6 13 mph 1008.7mb 49f
5:12 3 8 mph 1008.6mb 49f
5:06 3 13 mph 1008.6mb 48f
5:00 7 15 mph 1008.6mb 48f
4:54 5 13 mph 1008.6mb 48f
4:48 5 11 mph 1008.6mb 48f
4:42 7 14 mph 1008.6mb 48f
4:36 7 14 mph 1008.6mb 48f
4:30 6 13 mph 1008.6mb 48f
4:24 7 15 mph 1008.7mb 48f
4:18 2 7 mph 1008.6mb 48f
4:12 2 7 mph 1008.6mb 48f
4:06 2 6 mph 1008.6mb 48f
4:00 2 8 mph 1008.7mb 48f
3:54 2 7 mph 1008.7mb 48f
3:48 3 8 mph 1008.7mb 48f
3:42 6 13 mph 1008.7mb 48f
3:36 5 10 mph 1008.7mb 47f
3:30 8 10 mph 1008.7mb 47f
3:24 8 10 mph 1008.7mb 47f
3:18 7 13 mph 1008.8mb 46f
3:12 8 14 mph 1008.8mb 45f
3:06 11 15 mph 1008.9mb 46f
3:00 8 15 mph 1009mb 46f
2:54 11 24 mph 1008.9mb 45f
2:48  -  mph - 46f
2:42 5 11 mph - 49f
2:36 3 8 mph - 49f
2:30 3 9 mph - -
2:24 3 10 mph - -
2:18 2 7 mph - 48f
2:12 5 9 mph - 48f
2:06 2 7 mph - 48f
2:00 3 8 mph 1008.8mb 48f
1:54 2 7 mph 1008.9mb 47f
1:48 3 8 mph 1009mb 47f
1:42 2 11 mph 1009.1mb 47f
1:36 2 8 mph 1009.1mb 47f
1:30 6 14 mph 1009.1mb 47f
1:24 5 13 mph 1009.1mb 47f
1:18 2 8 mph 1009.1mb 47f
1:12 3 9 mph 1009.1mb 47f
1:06 5 11 mph 1009.1mb 47f
1:00 6 11 mph 1009.2mb 47f
12:54 2 8 mph 1009.2mb 48f
12:48 2 7 mph 1009.2mb 47f
12:42 1 6 mph 1009.2mb 47f
12:36 3 11 mph 1009.2mb 47f
12:30 7 20 mph 1009.2mb 47f
12:24 9 14 mph 1009.2mb 47f
12:18 3 9 mph 1009.3mb 47f
12:12 5 14 mph 1009.3mb 47f
12:06 10 20 mph 1009.3mb 47f
12:00 15 23 mph 1009.5mb 45f
jeu. 04/23 11:42 2 9 mph 1009mb 49f
11:30 6 16 mph 1009.1mb 49f
11:18 10 16 mph 1009.2mb 49f
11:06 6 13 mph 1009.4mb 49f
10:48 2 8 mph 1009.5mb 49f
10:42 3 9 mph 1009.5mb 49f
10:36 5 10 mph 1009.5mb 49f
10:30 7 14 mph 1009.6mb 49f
10:24 8 15 mph 1009.6mb 49f
10:18 10 17 mph 1009.6mb 49f
10:12 9 14 mph 1009.7mb 49f
9:54 5 11 mph 1009.9mb 49f
9:48 5 10 mph 1009.9mb 49f
9:42 6 15 mph 1009.9mb 49f
9:36 2 9 mph 1009.9mb 49f
9:30 6 13 mph 1009.9mb 49f
9:24 5 14 mph 1009.9mb 49f
9:18 3 8 mph 1009.8mb 49f
9:12 5 13 mph 1009.8mb 49f
8:54 2 5 mph 1009.8mb 48f
8:48 3 6 mph 1009.8mb 48f
8:42 3 6 mph 1009.9mb 48f
8:30 5 7 mph 1009.9mb -
8:24 6
mph
1009.9mb 48f
8:18 6 8 mph 1009.9mb 47f
8:12 8 18 mph 1009.9mb 48f
8:06 14 18 mph 1010mb 48f
8:00 2 9 mph 1010mb 49f
7:54 5 10 mph 1009.9mb 49f
7:48 6 11 mph 1009.9mb 49f
7:42 2 5 mph 1009.9mb 50f
7:36 1 5 mph 1010mb 50f
7:30 2 6 mph 1010mb 50f
7:24 2 8 mph 1010.1mb 51f
7:06 3 8 mph 1010.1mb 51f
7:00 2 13 mph 1010.1mb 51f
6:54 6 13 mph 1010.3mb 51f
6:48 9 14 mph 1010.3mb 51f
6:42 9 15 mph 1010.3mb 51f
6:36 13 15 mph 1010.3mb 51f
6:30 11 16 mph 1010.3mb 51f
6:24 11 15 mph 1010.3mb 51f
6:18 13 17 mph 1010.3mb 51f
6:12 13 16 mph 1010.3mb 51f
6:06 11 18 mph 1010.3mb 51f
6:00 14 20 mph 1010.4mb 51f
5:54 13 20 mph 1010.4mb 51f
5:48 14 17 mph 1010.4mb 51f
5:42 11 17 mph 1010.4mb 52f
5:36 8 16 mph 1010.4mb 52f
5:30 10 16 mph 1010.3mb 51f
5:24 13 15 mph 1010.3mb 51f
5:18 10 14 mph 1010.4mb 51f
5:12 11 17 mph 1010.4mb 51f
5:06 13 16 mph 1010.4mb 51f
5:00 14 20 mph 1010.4mb 51f
4:54 13 17 mph 1010.3mb 51f
4:48 13 18 mph 1010.3mb 51f
4:42 14 17 mph 1010.3mb 51f
4:36 14 20 mph 1010.4mb 51f
4:30 13 18 mph 1010.5mb 51f
4:24 15 20 mph 1010.4mb 51f
4:18 17 22 mph 1010.5mb -
4:12 18 23 mph 1010.4mb 51f
4:06 15 23 mph 1010.4mb 51f
4:00 18 24 mph 1010.3mb 51f
3:54 15 18 mph 1010.2mb 51f
3:48 7 11 mph 1010.3mb 51f
3:42 7 10 mph 1010.4mb 50f
3:36 8 10 mph 1010.3mb 50f
3:30 6 8 mph 1010.4mb 50f
3:24 8 10 mph 1010.4mb 49f
3:18 7 10 mph 1010.4mb 49f
3:12 7 9 mph 1010.4mb 49f
3:06 6 7 mph 1010.4mb 49f
3:00 3 6 mph 1010.4mb 49f
2:54 5 6 mph 1010.4mb 48f
2:48 5 7 mph 1010.6mb -
2:42 6 7 mph 1010.6mb 48f
2:36 7 8 mph 1010.7mb 48f
2:30 7 8 mph 1010.8mb 48f
2:24 7 9 mph 1010.8mb 48f
2:18 8 10 mph 1010.8mb 48f
2:12 5 11 mph 1010.9mb 48f
2:06 7 13 mph 1011.1mb 48f
2:00 9 11 mph 1011.1mb 48f
1:54 7 10 mph 1011.3mb 48f
1:48 2 8 mph - -
1:42 3 11 mph 1011.3mb 47f
1:36 10 15 mph 1011mb 47f
1:30 15 17 mph 1010.9mb 47f
1:24 2 17 mph 1010.9mb 47f
1:18 8 13 mph 1011.2mb 47f
1:12 17 29 mph 1011.3mb 47f
1:06 17 29 mph 1011.3mb 47f
1:00 24 32 mph 1011.2mb 47f
12:54 23 31 mph 1011mb 47f
12:48 24 34 mph - -
12:42 25 32 mph 1010.8mb 47f
12:36 25 36 mph 1010.8mb 47f
12:30 30 36 mph 1010.6mb 47f
12:24 29 36 mph 1010.6mb 48f
12:18 28 37 mph 1010.6mb 48f
12:12 28 32 mph 1010.7mb 47f
12:06 26 33 mph 1010.9mb 47f
12:00 26 34 mph 1010.9mb 48f
11:54 28 31 mph 1010.9mb 48f
11:48 25 30 mph 1011mb 48f
11:42 24 32 mph 1011.1mb 48f